KMIA

Miami International Airport

Miami, Florida, USA
METAR KMIA 271153Z 13010KT 10SM SCT015 BKN080 OVC140 24/23 A2979 RMK AO2 RAE18 SLP089 P0000 60011 70181 T02440233 10244 20233 51001 $
Observed Flight Rules
May-27 @ 11:53 UTC (13 minutes ago) Visual Flight Rules
Wind Visibility Clouds
130° at 10 knots 10 miles
  • Scattered at 1,500' AGL
  • Broken at 8,000' AGL
  • Overcast at 14,000' AGL
Temperatures Readings Precipitation
Current 24°C / 75°F
Dewpoint 23°C / 73°F
Humidity 94%
Altimeter 29.79" Hg
Pressure 1008.9 hPa
Elevation 3
Current Rain 0.005
METAR KMIA 271153Z 13010KT 10SM SCT015 BKN080 OVC140 24/23 A2979 RMK AO2 RAE18 SLP089 P0000 60011 70181 T02440233 10244 20233 51001 $
Observed Flight Rules
May-27 @ 11:53 UTC
(13 minutes ago)
VFR
Wind Visibility
130° at 10 knots 10 miles
Clouds
  • Scattered at 1,500' AGL
  • Broken at 8,000' AGL
  • Overcast at 14,000' AGL
Temperature Dewpoint
24°C / 75°F 23°C / 73°F
Humidity Altimeter Pressure
94% 29.79" Hg 1008.9 hPa
Current Rain
0.005